createdAt,value
2023-04-16T00:00:32.774Z,1.93
2023-04-16T00:03:01.299Z,1.87
2023-04-16T00:05:38.841Z,2.00
2023-04-16T00:08:09.753Z,2.07
2023-04-16T00:13:27.530Z,1.73
2023-04-16T00:15:55.966Z,2.10
2023-04-16T00:18:27.702Z,1.80
2023-04-16T00:20:59.590Z,1.90
2023-04-16T00:23:29.445Z,1.83
2023-04-16T00:26:00.284Z,2.33
2023-04-16T00:28:30.371Z,1.90
2023-04-16T00:31:01.762Z,1.77
2023-04-16T00:33:33.855Z,1.97
2023-04-16T00:36:05.824Z,2.13
2023-04-16T00:38:42.508Z,2.10
2023-04-16T00:41:12.133Z,1.80
2023-04-16T00:43:42.892Z,1.77
2023-04-16T00:46:18.650Z,2.17
2023-04-16T00:48:46.821Z,1.80
2023-04-16T00:51:20.167Z,1.93
2023-04-16T00:53:51.038Z,1.40
2023-04-16T00:56:26.669Z,1.70
2023-04-16T00:58:58.195Z,1.80
2023-04-16T01:01:27.166Z,1.77
2023-04-16T01:04:02.046Z,1.70
2023-04-16T01:06:38.908Z,2.13
2023-04-16T01:09:14.271Z,2.00
2023-04-16T01:11:51.397Z,1.67
2023-04-16T01:14:23.179Z,2.00
2023-04-16T01:16:54.984Z,2.10
2023-04-16T01:19:24.342Z,2.13
2023-04-16T01:22:08.022Z,1.97
2023-04-16T01:24:36.552Z,1.90
2023-04-16T01:27:05.704Z,1.73
2023-04-16T01:29:35.566Z,2.27
2023-04-16T01:32:12.844Z,2.23
2023-04-16T01:34:46.962Z,2.70
2023-04-16T01:37:32.964Z,2.37
2023-04-16T01:40:02.868Z,2.27
2023-04-16T01:42:39.182Z,1.97
2023-04-16T01:45:11.184Z,2.50
2023-04-16T01:47:43.375Z,2.10
2023-04-16T01:50:16.038Z,2.43
2023-04-16T01:52:59.368Z,2.37
2023-04-16T01:55:31.264Z,1.90
2023-04-16T01:58:02.321Z,2.03
2023-04-16T02:00:36.351Z,2.23
2023-04-16T02:03:05.291Z,2.30
2023-04-16T02:05:35.174Z,2.53
2023-04-16T02:08:07.684Z,2.27
2023-04-16T02:10:36.005Z,2.20
2023-04-16T02:13:06.604Z,2.23
2023-04-16T02:15:38.574Z,1.90
2023-04-16T02:18:10.557Z,2.30
2023-04-16T02:20:43.251Z,2.40
2023-04-16T02:23:27.158Z,2.30
2023-04-16T02:25:58.008Z,2.50
2023-04-16T02:28:28.639Z,2.23
2023-04-16T02:30:57.976Z,2.43
2023-04-16T02:33:28.781Z,3.07
2023-04-16T02:36:17.244Z,2.80
2023-04-16T02:38:58.289Z,3.20
2023-04-16T02:41:28.583Z,3.10
2023-04-16T02:44:02.302Z,3.40
2023-04-16T02:46:36.686Z,3.30
2023-04-16T02:49:07.900Z,2.93
2023-04-16T02:51:38.562Z,3.37
2023-04-16T02:54:08.669Z,3.30
2023-04-16T02:56:50.504Z,3.67
2023-04-16T02:59:19.419Z,3.50
2023-04-16T03:01:51.253Z,3.90
2023-04-16T03:04:20.645Z,3.70
2023-04-16T03:06:54.883Z,3.73
2023-04-16T03:09:29.856Z,3.77
2023-04-16T03:12:09.349Z,3.90
2023-04-16T03:14:37.962Z,4.47
2023-04-16T03:17:09.982Z,3.70
2023-04-16T03:19:41.604Z,3.77
2023-04-16T03:22:11.415Z,3.40
2023-04-16T03:24:47.040Z,4.30
2023-04-16T03:27:34.134Z,3.77
2023-04-16T03:30:04.711Z,3.67
2023-04-16T03:32:37.780Z,4.47
2023-04-16T03:35:08.846Z,4.50
2023-04-16T03:37:40.532Z,5.00
2023-04-16T03:40:16.649Z,5.23
2023-04-16T03:42:48.600Z,5.20
2023-04-16T03:45:20.063Z,6.40
2023-04-16T03:47:53.630Z,5.90
2023-04-16T03:50:31.055Z,6.50
2023-04-16T03:53:00.874Z,6.77
2023-04-16T03:55:38.883Z,7.13
2023-04-16T03:58:13.649Z,6.80
2023-04-16T04:00:52.922Z,7.97
2023-04-16T04:03:26.468Z,6.63
2023-04-16T04:05:57.377Z,6.67
2023-04-16T04:08:34.083Z,6.57
2023-04-16T04:11:06.347Z,6.87
2023-04-16T04:13:42.067Z,6.63
2023-04-16T04:16:12.601Z,6.50
2023-04-16T04:18:43.936Z,7.17
2023-04-16T04:21:18.341Z,6.50
2023-04-16T04:23:47.354Z,6.90
2023-04-16T04:26:27.877Z,6.80
2023-04-16T04:29:05.929Z,7.20
2023-04-16T04:31:42.791Z,7.77
2023-04-16T04:34:40.433Z,6.70
2023-04-16T04:37:12.472Z,7.63
2023-04-16T04:39:45.170Z,8.00
2023-04-16T04:42:24.745Z,7.93
2023-04-16T04:44:57.818Z,9.73
2023-04-16T04:47:26.667Z,10.03
2023-04-16T04:49:58.711Z,10.57
2023-04-16T04:52:29.802Z,11.07
2023-04-16T04:55:01.296Z,10.40
2023-04-16T04:57:33.737Z,11.10
2023-04-16T05:00:15.146Z,11.27
2023-04-16T05:02:53.613Z,10.63
2023-04-16T05:05:25.389Z,9.13
2023-04-16T05:07:56.578Z,10.53
2023-04-16T05:10:26.455Z,10.27
2023-04-16T05:13:04.064Z,10.87
2023-04-16T05:15:34.327Z,10.77
2023-04-16T05:18:09.352Z,11.10
2023-04-16T05:20:38.043Z,11.57
2023-04-16T05:23:10.000Z,11.30
2023-04-16T05:25:39.238Z,11.57
2023-04-16T05:28:16.522Z,10.30
2023-04-16T05:30:53.030Z,10.33
2023-04-16T05:33:23.603Z,8.87
2023-04-16T05:35:54.996Z,11.23
2023-04-16T05:38:24.447Z,10.63
2023-04-16T05:40:54.692Z,9.13
2023-04-16T05:43:27.067Z,9.67
2023-04-16T05:45:55.547Z,9.33
2023-04-16T05:48:26.810Z,9.00
2023-04-16T05:50:55.765Z,9.27
2023-04-16T05:53:24.516Z,9.47
2023-04-16T05:55:54.096Z,8.70
2023-04-16T05:58:33.432Z,9.10
2023-04-16T06:01:04.566Z,8.97
2023-04-16T06:03:33.586Z,8.40
2023-04-16T06:06:05.043Z,9.87
2023-04-16T06:08:36.061Z,8.80
2023-04-16T06:11:08.641Z,8.20
2023-04-16T06:13:43.149Z,8.73
2023-04-16T06:16:17.283Z,8.13
2023-04-16T06:18:45.347Z,8.70
2023-04-16T06:21:15.349Z,9.50
2023-04-16T06:23:46.233Z,8.63
2023-04-16T06:26:17.219Z,8.17
2023-04-16T06:29:00.375Z,9.17
2023-04-16T06:31:30.972Z,8.20
2023-04-16T06:34:07.511Z,9.50
2023-04-16T06:36:41.264Z,8.30
2023-04-16T06:39:10.081Z,10.13
2023-04-16T06:41:42.029Z,10.33
2023-04-16T06:44:17.079Z,11.57
2023-04-16T06:46:54.940Z,11.67
2023-04-16T06:49:25.686Z,13.70
2023-04-16T06:51:58.968Z,13.30
2023-04-16T06:54:33.044Z,13.10
2023-04-16T06:57:06.081Z,12.63
2023-04-16T06:59:44.819Z,12.57
2023-04-16T07:02:16.575Z,13.37
2023-04-16T07:04:47.983Z,12.47
2023-04-16T07:07:20.388Z,13.97
2023-04-16T07:09:58.108Z,14.20
2023-04-16T07:12:35.296Z,13.00
2023-04-16T07:15:09.008Z,12.90
2023-04-16T07:17:38.326Z,11.67
2023-04-16T07:20:08.301Z,12.90
2023-04-16T07:22:42.341Z,10.67
2023-04-16T07:25:12.972Z,9.40
2023-04-16T07:27:49.020Z,9.07
2023-04-16T07:30:20.336Z,9.83
2023-04-16T07:32:48.859Z,11.00
2023-04-16T07:35:26.715Z,9.77
2023-04-16T07:38:04.478Z,9.00
2023-04-16T07:40:38.733Z,8.97
2023-04-16T07:43:09.584Z,8.70
2023-04-16T07:45:43.049Z,7.80
2023-04-16T07:48:11.897Z,7.83
2023-04-16T07:50:40.007Z,7.10
2023-04-16T07:53:11.817Z,7.60
2023-04-16T07:55:44.178Z,8.27
2023-04-16T08:01:10.072Z,8.70
2023-04-16T08:03:44.168Z,8.50
2023-04-16T08:06:18.306Z,9.80
2023-04-16T08:08:47.149Z,9.70
2023-04-16T08:11:18.009Z,8.90
2023-04-16T08:13:54.612Z,9.57
2023-04-16T08:16:25.296Z,9.40
2023-04-16T08:19:01.072Z,9.20
2023-04-16T08:21:32.825Z,9.07
2023-04-16T08:24:09.182Z,8.17
2023-04-16T08:26:40.050Z,8.43
2023-04-16T08:29:23.201Z,7.67
2023-04-16T08:31:59.130Z,7.63
2023-04-16T08:34:27.996Z,7.57
2023-04-16T08:37:05.617Z,7.00
2023-04-16T08:39:36.743Z,6.80
2023-04-16T08:42:09.330Z,7.23
2023-04-16T08:44:49.498Z,6.53
2023-04-16T08:47:27.788Z,6.43
2023-04-16T08:49:58.647Z,5.30
2023-04-16T08:52:27.498Z,4.33
2023-04-16T08:55:01.594Z,3.63
2023-04-16T08:57:42.512Z,4.27
2023-04-16T09:00:14.132Z,4.47
2023-04-16T09:02:48.337Z,4.40
2023-04-16T09:05:25.128Z,4.70
2023-04-16T09:07:57.281Z,4.20
2023-04-16T09:10:35.329Z,4.20
2023-04-16T09:13:08.563Z,4.53
2023-04-16T09:15:40.183Z,4.27
2023-04-16T09:18:16.440Z,3.77
2023-04-16T09:20:44.746Z,3.60
2023-04-16T09:23:21.073Z,3.53
2023-04-16T09:25:52.206Z,3.10
2023-04-16T09:28:40.919Z,3.30
2023-04-16T09:31:13.065Z,3.40
2023-04-16T09:34:08.297Z,2.97
2023-04-16T09:36:39.895Z,2.60
2023-04-16T09:39:20.141Z,3.80
2023-04-16T09:41:52.578Z,2.60
2023-04-16T09:44:22.111Z,2.50
2023-04-16T09:46:52.573Z,2.70
2023-04-16T09:49:23.199Z,2.47
2023-04-16T09:51:58.442Z,2.67
2023-04-16T09:54:27.982Z,2.17
2023-04-16T09:57:06.372Z,2.60
2023-04-16T09:59:38.024Z,2.23
2023-04-16T10:02:15.758Z,2.50
2023-04-16T10:04:54.094Z,3.17
2023-04-16T10:07:23.235Z,2.70
2023-04-16T10:09:52.660Z,2.90
2023-04-16T10:12:26.162Z,3.00
2023-04-16T10:14:54.287Z,3.20
2023-04-16T10:17:22.823Z,2.60
2023-04-16T10:19:53.812Z,2.90
2023-04-16T10:22:27.953Z,3.27
2023-04-16T10:24:56.975Z,4.00
2023-04-16T10:27:28.275Z,2.70
2023-04-16T10:29:57.097Z,3.10
2023-04-16T10:32:28.777Z,3.90
2023-04-16T10:34:59.427Z,3.70
2023-04-16T10:37:32.536Z,3.70
2023-04-16T10:40:00.867Z,3.20
2023-04-16T10:42:37.757Z,3.43
2023-04-16T10:45:06.809Z,3.27
2023-04-16T10:47:43.626Z,3.03
2023-04-16T10:50:21.934Z,3.80
2023-04-16T10:52:51.684Z,3.50
2023-04-16T10:55:21.312Z,3.70
2023-04-16T10:57:58.589Z,3.80
2023-04-16T11:00:28.110Z,3.87
2023-04-16T11:02:57.443Z,3.90
2023-04-16T11:05:46.886Z,3.37
2023-04-16T11:08:17.189Z,3.73
2023-04-16T11:10:46.054Z,2.90
2023-04-16T11:13:23.301Z,2.97
2023-04-16T11:16:05.654Z,2.77
2023-04-16T11:18:35.478Z,2.40
2023-04-16T11:21:09.679Z,2.70
2023-04-16T11:23:49.613Z,2.83
2023-04-16T11:26:29.100Z,2.47
2023-04-16T11:29:01.248Z,3.20
2023-04-16T11:31:30.385Z,2.20
2023-04-16T11:34:00.970Z,2.77
2023-04-16T11:36:48.316Z,2.63
2023-04-16T11:39:28.626Z,2.03
2023-04-16T11:41:59.051Z,2.60
2023-04-16T11:44:29.967Z,2.17
2023-04-16T11:47:06.018Z,2.20
2023-04-16T11:49:40.372Z,2.03
2023-04-16T11:52:12.638Z,2.57
2023-04-16T11:54:47.032Z,2.30
2023-04-16T11:57:24.080Z,2.20
2023-04-16T12:00:03.966Z,2.50
2023-04-16T12:02:52.434Z,2.17
2023-04-16T12:05:35.212Z,2.60
2023-04-16T12:08:08.788Z,2.03
2023-04-16T12:10:38.317Z,2.03
2023-04-16T12:13:17.708Z,2.57
2023-04-16T12:15:51.036Z,2.30
2023-04-16T12:18:23.100Z,2.10
2023-04-16T12:20:53.040Z,2.57
2023-04-16T12:23:37.675Z,2.43
2023-04-16T12:26:26.779Z,2.50
2023-04-16T12:29:01.264Z,2.80
2023-04-16T12:31:48.275Z,3.10
2023-04-16T12:34:19.814Z,2.60
2023-04-16T12:36:49.355Z,2.50
2023-04-16T12:39:31.949Z,1.87
2023-04-16T12:42:08.374Z,2.23
2023-04-16T12:44:38.356Z,2.17
2023-04-16T12:47:08.190Z,1.97
2023-04-16T12:49:37.545Z,1.90
2023-04-16T12:52:07.473Z,2.90
2023-04-16T12:54:38.996Z,1.70
2023-04-16T12:57:12.347Z,1.70
2023-04-16T12:59:44.499Z,1.50
2023-04-16T13:02:19.614Z,2.20
2023-04-16T13:04:57.950Z,1.47
2023-04-16T13:07:29.048Z,1.73
2023-04-16T13:09:59.950Z,1.57
2023-04-16T13:12:29.038Z,1.50
2023-04-16T13:15:00.345Z,1.47
2023-04-16T13:17:29.056Z,1.60
2023-04-16T13:20:00.390Z,1.83
2023-04-16T13:22:29.749Z,1.70
2023-04-16T13:25:01.302Z,1.50
2023-04-16T13:27:32.248Z,2.30
2023-04-16T13:30:07.819Z,1.80
2023-04-16T13:32:36.730Z,1.80
2023-04-16T13:35:06.890Z,2.37
2023-04-16T13:37:39.492Z,2.40
2023-04-16T13:40:18.587Z,2.10
2023-04-16T13:42:50.205Z,1.97
2023-04-16T13:45:21.361Z,1.60
2023-04-16T13:47:50.245Z,2.30
2023-04-16T13:50:20.714Z,2.17
2023-04-16T13:52:51.415Z,1.57
2023-04-16T13:55:30.845Z,1.73
2023-04-16T13:58:01.268Z,1.50
2023-04-16T14:00:37.166Z,1.80
2023-04-16T14:03:07.007Z,2.27
2023-04-16T14:05:39.669Z,1.80
2023-04-16T14:08:17.473Z,2.10
2023-04-16T14:11:04.870Z,1.60
2023-04-16T14:13:39.795Z,1.53
2023-04-16T14:16:11.783Z,1.63
2023-04-16T14:18:44.885Z,1.63
2023-04-16T14:21:17.274Z,1.73
2023-04-16T14:23:47.657Z,2.00
2023-04-16T14:26:28.956Z,2.37
2023-04-16T14:28:59.728Z,1.93
2023-04-16T14:31:29.187Z,1.80
2023-04-16T14:34:00.656Z,2.13
2023-04-16T14:36:33.319Z,2.13
2023-04-16T14:39:04.939Z,1.37
2023-04-16T14:41:42.203Z,1.43
2023-04-16T14:44:12.634Z,1.40
2023-04-16T14:46:49.837Z,1.50
2023-04-16T14:49:23.970Z,1.73
2023-04-16T14:51:53.475Z,1.47
2023-04-16T14:54:22.551Z,1.90
2023-04-16T14:56:59.060Z,1.53
2023-04-16T14:59:32.396Z,1.73
2023-04-16T15:02:03.384Z,1.83
2023-04-16T15:04:41.908Z,1.97
2023-04-16T15:07:12.576Z,2.00
2023-04-16T15:09:41.560Z,2.00
2023-04-16T15:12:29.181Z,1.90
2023-04-16T15:15:02.030Z,2.10
2023-04-16T15:17:33.403Z,2.00
2023-04-16T15:20:12.251Z,2.10
2023-04-16T15:22:50.933Z,1.77
2023-04-16T15:25:21.176Z,1.80
2023-04-16T15:27:59.408Z,1.60
2023-04-16T15:30:29.375Z,1.50
2023-04-16T15:32:59.823Z,1.83
2023-04-16T15:35:30.961Z,1.90
2023-04-16T15:38:06.038Z,1.73
2023-04-16T15:40:34.308Z,1.97
2023-04-16T15:43:23.755Z,2.10
2023-04-16T15:46:03.175Z,1.83
2023-04-16T15:48:34.536Z,1.90
2023-04-16T15:51:06.599Z,1.87
2023-04-16T15:53:38.284Z,2.30
2023-04-16T15:56:09.123Z,1.90
2023-04-16T15:58:48.932Z,2.20
2023-04-16T16:01:28.910Z,2.20
2023-04-16T16:04:09.023Z,2.73
2023-04-16T16:06:40.862Z,2.43
2023-04-16T16:09:14.755Z,2.50
2023-04-16T16:11:44.748Z,2.30
2023-04-16T16:14:18.650Z,2.43
2023-04-16T16:16:50.912Z,2.13
2023-04-16T16:19:21.940Z,2.30
2023-04-16T16:21:59.341Z,3.40
2023-04-16T16:24:28.603Z,2.97
2023-04-16T16:26:59.117Z,2.30
2023-04-16T16:29:42.183Z,3.30
2023-04-16T16:32:12.958Z,2.90
2023-04-16T16:34:42.131Z,3.30
2023-04-16T16:37:16.967Z,4.00
2023-04-16T16:39:47.288Z,3.67
2023-04-16T16:42:21.368Z,2.83
2023-04-16T16:45:12.362Z,3.50
2023-04-16T16:47:53.016Z,3.70
2023-04-16T16:50:23.170Z,3.20
2023-04-16T16:53:06.660Z,3.60
2023-04-16T16:55:38.146Z,4.00
2023-04-16T16:58:19.717Z,3.90
2023-04-16T17:01:00.647Z,3.70
2023-04-16T17:03:33.958Z,4.10
2023-04-16T17:06:04.876Z,4.00
2023-04-16T17:08:34.517Z,3.87
2023-04-16T17:11:05.033Z,5.27
2023-04-16T17:13:35.299Z,4.97
2023-04-16T17:16:12.032Z,5.10
2023-04-16T17:18:42.554Z,5.20
2023-04-16T17:21:12.418Z,5.60
2023-04-16T17:23:51.601Z,5.87
2023-04-16T17:26:32.427Z,6.20
2023-04-16T17:29:08.100Z,6.70
2023-04-16T17:31:46.190Z,6.80
2023-04-16T17:34:22.155Z,6.70
2023-04-16T17:36:52.151Z,6.47
2023-04-16T17:39:26.216Z,6.30
2023-04-16T17:42:04.856Z,7.17
2023-04-16T17:44:38.848Z,7.60
2023-04-16T17:47:20.190Z,7.63
2023-04-16T17:49:58.969Z,8.40
2023-04-16T17:52:28.746Z,8.10
2023-04-16T17:55:04.563Z,7.60
2023-04-16T17:57:45.011Z,7.10
2023-04-16T18:00:24.898Z,7.50
2023-04-16T18:03:05.109Z,7.60
2023-04-16T18:05:45.663Z,7.43
2023-04-16T18:08:22.043Z,7.00
2023-04-16T18:10:58.200Z,7.97
2023-04-16T18:13:35.296Z,6.73
2023-04-16T18:16:07.696Z,7.20
2023-04-16T18:18:42.086Z,7.10
2023-04-16T18:21:20.809Z,7.50
2023-04-16T18:23:59.558Z,8.23
2023-04-16T18:26:40.793Z,8.00
2023-04-16T18:29:13.627Z,7.60
2023-04-16T18:31:57.494Z,8.17
2023-04-16T18:34:33.695Z,8.90
2023-04-16T18:37:05.072Z,7.80
2023-04-16T18:39:47.679Z,7.80
2023-04-16T18:42:31.289Z,6.67
2023-04-16T18:45:09.900Z,6.90
2023-04-16T18:47:45.115Z,6.73
2023-04-16T18:53:02.323Z,6.87
2023-04-16T18:55:34.045Z,6.80
2023-04-16T18:58:13.324Z,6.73
2023-04-16T19:00:56.098Z,6.57
2023-04-16T19:03:56.748Z,7.43
2023-04-16T19:06:40.866Z,6.17
2023-04-16T19:09:12.927Z,6.30
2023-04-16T19:11:49.091Z,6.70
2023-04-16T19:14:21.365Z,7.60
2023-04-16T19:16:59.100Z,5.60
2023-04-16T19:19:29.057Z,6.77
2023-04-16T19:22:01.328Z,6.33
2023-04-16T19:24:34.146Z,8.10
2023-04-16T19:27:11.993Z,7.33
2023-04-16T19:29:49.665Z,6.20
2023-04-16T19:32:23.746Z,6.20
2023-04-16T19:35:14.562Z,6.10
2023-04-16T19:38:00.810Z,6.10
2023-04-16T19:40:42.034Z,5.53
2023-04-16T19:43:18.998Z,5.70
2023-04-16T19:46:01.935Z,5.50
2023-04-16T19:48:39.292Z,6.10
2023-04-16T19:51:10.529Z,6.97
2023-04-16T19:53:50.439Z,5.90
2023-04-16T19:56:37.980Z,5.07
2023-04-16T19:59:07.596Z,5.83
2023-04-16T20:01:39.948Z,5.90
2023-04-16T20:04:23.362Z,6.13
2023-04-16T20:07:03.350Z,6.20
2023-04-16T20:09:45.415Z,5.90
2023-04-16T20:12:26.637Z,5.47
2023-04-16T20:14:57.457Z,5.90
2023-04-16T20:17:29.373Z,5.30
2023-04-16T20:20:10.361Z,5.17
2023-04-16T20:22:46.955Z,5.90
2023-04-16T20:25:21.001Z,5.80
2023-04-16T20:27:59.325Z,5.73
2023-04-16T20:30:31.318Z,5.30
2023-04-16T20:33:09.589Z,4.83
2023-04-16T20:35:49.939Z,5.27
2023-04-16T20:38:31.922Z,5.50
2023-04-16T20:41:23.435Z,5.80
2023-04-16T20:43:54.448Z,5.03
2023-04-16T20:46:27.253Z,5.80
2023-04-16T20:48:58.983Z,5.60
2023-04-16T20:51:28.110Z,6.17
2023-04-16T20:53:58.812Z,5.27
2023-04-16T20:56:31.169Z,6.50
2023-04-16T20:59:04.463Z,5.83
2023-04-16T21:01:41.944Z,6.07
2023-04-16T21:04:11.560Z,5.17
2023-04-16T21:06:46.696Z,5.10
2023-04-16T21:09:23.979Z,4.90
2023-04-16T21:12:01.051Z,5.30
2023-04-16T21:14:41.426Z,4.90
2023-04-16T21:17:13.368Z,5.70
2023-04-16T21:19:47.106Z,5.13
2023-04-16T21:22:18.317Z,5.73
2023-04-16T21:24:56.041Z,5.63
2023-04-16T21:27:39.596Z,5.37
2023-04-16T21:30:20.799Z,5.13
2023-04-16T21:32:51.144Z,6.23
2023-04-16T21:35:31.312Z,5.80
2023-04-16T21:38:02.675Z,6.30
2023-04-16T21:40:42.365Z,5.43
2023-04-16T21:43:14.970Z,5.70
2023-04-16T21:45:44.553Z,5.37
2023-04-16T21:48:15.130Z,5.80
2023-04-16T21:50:54.977Z,5.70
2023-04-16T21:53:24.301Z,5.10
2023-04-16T21:56:03.298Z,5.23
2023-04-16T21:58:35.801Z,5.00
2023-04-16T22:01:09.582Z,5.23
2023-04-16T22:03:40.343Z,5.13
2023-04-16T22:06:14.272Z,6.00
2023-04-16T22:08:44.008Z,5.23
2023-04-16T22:11:21.374Z,5.43
2023-04-16T22:13:58.018Z,5.87
2023-04-16T22:16:32.616Z,5.33
2023-04-16T22:19:02.811Z,5.60
2023-04-16T22:21:45.115Z,5.47
2023-04-16T22:24:16.146Z,5.23
2023-04-16T22:26:49.945Z,4.93
2023-04-16T22:29:22.381Z,5.20
2023-04-16T22:31:51.824Z,5.00
2023-04-16T22:34:23.347Z,5.07
2023-04-16T22:36:53.006Z,5.40
2023-04-16T22:39:26.881Z,4.90
2023-04-16T22:41:54.892Z,5.20
2023-04-16T22:44:27.489Z,5.30
2023-04-16T22:46:58.938Z,5.20
2023-04-16T22:49:33.250Z,5.30
2023-04-16T22:52:02.349Z,5.27
2023-04-16T22:54:41.031Z,5.50
2023-04-16T22:57:12.915Z,4.87
2023-04-16T22:59:43.135Z,5.03
2023-04-16T23:02:11.859Z,4.47
2023-04-16T23:04:41.219Z,5.00
2023-04-16T23:07:15.574Z,4.70
2023-04-16T23:09:52.860Z,5.73
2023-04-16T23:12:26.358Z,5.30
2023-04-16T23:15:03.700Z,5.00
2023-04-16T23:17:35.080Z,4.30
2023-04-16T23:20:08.084Z,5.10
2023-04-16T23:22:37.033Z,4.83
2023-04-16T23:25:09.058Z,4.97
2023-04-16T23:27:46.501Z,4.73
2023-04-16T23:30:26.153Z,5.40
2023-04-16T23:32:54.951Z,5.03
2023-04-16T23:35:31.962Z,5.60
2023-04-16T23:38:03.666Z,5.57
2023-04-16T23:40:33.047Z,5.87
2023-04-16T23:43:09.708Z,5.40
2023-04-16T23:45:45.131Z,6.40
2023-04-16T23:48:16.011Z,5.97
2023-04-16T23:50:48.306Z,5.60
2023-04-16T23:53:27.334Z,5.80
2023-04-16T23:55:58.855Z,5.70
2023-04-16T23:58:29.992Z,5.27
